createdAt,value
2019-02-09T00:00:19.786Z,0.00
2019-02-09T00:01:20.020Z,0.00
2019-02-09T00:03:24.163Z,0.00
2019-02-09T00:04:24.399Z,0.00
2019-02-09T00:06:28.564Z,0.00
2019-02-09T00:07:28.800Z,0.00
2019-02-09T00:09:32.963Z,0.00
2019-02-09T00:10:33.212Z,0.00
2019-02-09T00:12:37.368Z,0.00
2019-02-09T00:13:37.605Z,0.00
2019-02-09T00:15:41.781Z,0.00
2019-02-09T00:16:42.013Z,0.00
2019-02-09T00:18:46.159Z,0.00
2019-02-09T00:19:46.388Z,0.00
2019-02-09T00:21:50.559Z,0.00
2019-02-09T00:22:50.798Z,0.00
2019-02-09T00:24:54.936Z,0.00
2019-02-09T00:25:55.174Z,0.00
2019-02-09T00:27:59.340Z,0.00
2019-02-09T00:28:59.582Z,0.00
2019-02-09T00:31:03.745Z,0.00
2019-02-09T00:32:03.980Z,0.00
2019-02-09T00:34:08.126Z,0.00
2019-02-09T00:35:08.360Z,0.00
2019-02-09T00:37:01.458Z,0.00
2019-02-09T00:38:01.695Z,0.00
2019-02-09T00:40:05.837Z,0.00
2019-02-09T00:41:06.079Z,0.00
2019-02-09T00:43:10.256Z,0.00
2019-02-09T00:44:10.482Z,0.00
2019-02-09T00:46:14.656Z,0.00
2019-02-09T00:47:14.894Z,0.00
2019-02-09T00:49:19.041Z,0.00
2019-02-09T00:50:19.276Z,0.00
2019-02-09T00:52:23.451Z,0.00
2019-02-09T00:53:23.682Z,0.00
2019-02-09T00:55:27.823Z,0.00
2019-02-09T00:56:28.059Z,0.00
2019-02-09T00:58:32.224Z,0.00
2019-02-09T00:59:32.460Z,0.00
2019-02-09T01:01:36.634Z,0.00
2019-02-09T01:02:36.870Z,0.00
2019-02-09T01:04:41.007Z,0.00
2019-02-09T01:05:41.244Z,0.00
2019-02-09T01:07:45.412Z,0.00
2019-02-09T01:08:45.649Z,0.00
2019-02-09T01:10:49.792Z,0.00
2019-02-09T01:11:50.033Z,0.00
2019-02-09T01:13:54.201Z,0.00
2019-02-09T01:14:54.438Z,0.00
2019-02-09T01:16:47.535Z,0.00
2019-02-09T01:17:47.774Z,0.00
2019-02-09T01:19:51.921Z,0.00
2019-02-09T01:20:52.157Z,0.00
2019-02-09T01:22:56.331Z,0.00
2019-02-09T01:23:56.560Z,0.00
2019-02-09T01:26:00.703Z,0.00
2019-02-09T01:27:00.936Z,0.00
2019-02-09T01:29:05.102Z,0.00
2019-02-09T01:30:05.336Z,0.00
2019-02-09T01:32:09.502Z,0.00
2019-02-09T01:33:09.750Z,0.00
2019-02-09T01:35:13.883Z,0.00
2019-02-09T01:36:14.118Z,0.00
2019-02-09T01:38:18.282Z,0.00
2019-02-09T01:39:18.534Z,0.00
2019-02-09T01:41:22.657Z,0.00
2019-02-09T01:42:22.901Z,0.00
2019-02-09T01:44:27.066Z,0.00
2019-02-09T01:45:27.302Z,0.00
2019-02-09T01:47:20.374Z,0.00
2019-02-09T01:48:20.609Z,0.00
2019-02-09T01:50:24.785Z,0.00
2019-02-09T01:51:25.022Z,0.00
2019-02-09T01:53:29.186Z,0.00
2019-02-09T01:54:29.432Z,0.00
2019-02-09T01:56:33.566Z,0.00
2019-02-09T01:57:33.803Z,0.00
2019-02-09T01:59:37.970Z,0.00
2019-02-09T02:00:38.205Z,0.00
2019-02-09T02:02:42.383Z,0.00
2019-02-09T02:03:42.619Z,0.00
2019-02-09T02:05:46.764Z,0.00
2019-02-09T02:06:46.998Z,0.00
2019-02-09T02:08:51.167Z,0.00
2019-02-09T02:09:51.405Z,0.00
2019-02-09T02:11:55.551Z,0.00
2019-02-09T02:12:55.789Z,0.00
2019-02-09T02:14:59.949Z,0.00
2019-02-09T02:16:00.186Z,0.00
2019-02-09T02:18:04.354Z,0.00
2019-02-09T02:19:04.590Z,0.00
2019-02-09T02:21:08.734Z,0.00
2019-02-09T02:22:08.975Z,0.00
2019-02-09T02:24:13.137Z,0.00
2019-02-09T02:25:13.373Z,0.00
2019-02-09T02:27:06.446Z,0.00
2019-02-09T02:28:06.683Z,0.00
2019-02-09T02:30:21.660Z,0.00
2019-02-09T02:31:12.107Z,0.00
2019-02-09T02:33:16.276Z,0.00
2019-02-09T02:34:16.515Z,0.00
2019-02-09T02:36:20.664Z,0.00
2019-02-09T02:37:20.900Z,0.00
2019-02-09T02:39:25.065Z,0.00
2019-02-09T02:40:25.303Z,0.00
2019-02-09T02:42:29.446Z,0.00
2019-02-09T02:43:29.683Z,0.00
2019-02-09T02:45:33.857Z,0.00
2019-02-09T02:46:34.087Z,0.00
2019-02-09T02:48:38.286Z,0.00
2019-02-09T02:49:38.487Z,0.00
2019-02-09T02:51:42.658Z,0.00
2019-02-09T02:52:42.896Z,0.00
2019-02-09T02:54:47.058Z,0.00
2019-02-09T02:55:47.296Z,0.00
2019-02-09T02:57:51.443Z,0.00
2019-02-09T02:58:51.681Z,0.00
2019-02-09T03:00:55.846Z,0.00
2019-02-09T03:01:56.084Z,0.00
2019-02-09T03:04:00.294Z,0.00
2019-02-09T03:05:00.497Z,0.00
2019-02-09T03:06:53.571Z,0.00
2019-02-09T03:07:53.808Z,0.00
2019-02-09T03:09:57.979Z,0.00
2019-02-09T03:10:58.214Z,0.00
2019-02-09T03:13:02.360Z,0.00
2019-02-09T03:14:02.603Z,0.00
2019-02-09T03:16:06.780Z,0.00
2019-02-09T03:17:07.016Z,0.00
2019-02-09T03:19:11.158Z,0.00
2019-02-09T03:20:11.390Z,0.00
2019-02-09T03:22:15.565Z,0.00
2019-02-09T03:23:15.797Z,0.00
2019-02-09T03:25:19.964Z,0.00
2019-02-09T03:26:20.200Z,0.00
2019-02-09T03:28:24.357Z,0.00
2019-02-09T03:29:24.594Z,0.00
2019-02-09T03:31:28.765Z,0.00
2019-02-09T03:32:29.004Z,0.00
2019-02-09T03:34:33.140Z,0.00
2019-02-09T03:35:33.376Z,0.00
2019-02-09T03:37:26.468Z,0.00
2019-02-09T03:38:26.703Z,0.00
2019-02-09T03:40:30.871Z,0.00
2019-02-09T03:41:31.105Z,0.00
2019-02-09T03:43:35.254Z,0.00
2019-02-09T03:44:35.488Z,0.00
2019-02-09T03:46:39.664Z,0.00
2019-02-09T03:47:39.902Z,0.00
2019-02-09T03:49:44.055Z,0.00
2019-02-09T03:50:44.287Z,0.00
2019-02-09T03:52:48.463Z,0.00
2019-02-09T03:53:48.712Z,0.00
2019-02-09T03:55:52.865Z,0.00
2019-02-09T03:56:53.101Z,0.00
2019-02-09T03:58:57.241Z,0.00
2019-02-09T03:59:57.481Z,0.00
2019-02-09T04:02:01.643Z,0.00
2019-02-09T04:03:01.880Z,0.00
2019-02-09T04:05:06.035Z,0.00
2019-02-09T04:06:06.272Z,0.00
2019-02-09T04:08:10.442Z,0.00
2019-02-09T04:09:10.677Z,0.00
2019-02-09T04:11:14.845Z,0.00
2019-02-09T04:12:15.084Z,0.00
2019-02-09T04:14:19.228Z,0.00
2019-02-09T04:15:19.462Z,0.00
2019-02-09T04:17:12.559Z,0.00
2019-02-09T04:18:12.794Z,0.00
2019-02-09T04:20:16.944Z,0.00
2019-02-09T04:21:17.180Z,0.00
2019-02-09T04:23:21.348Z,0.00
2019-02-09T04:24:21.583Z,0.00
2019-02-09T04:26:25.756Z,0.00
2019-02-09T04:27:25.991Z,0.00
2019-02-09T04:29:30.139Z,0.00
2019-02-09T04:30:30.375Z,0.00
2019-02-09T04:32:34.545Z,0.00
2019-02-09T04:33:34.780Z,0.00
2019-02-09T04:35:38.926Z,0.00
2019-02-09T04:36:39.164Z,0.00
2019-02-09T04:38:43.335Z,0.00
2019-02-09T04:39:43.571Z,0.00
2019-02-09T04:41:47.739Z,0.00
2019-02-09T04:42:47.974Z,0.00
2019-02-09T04:44:52.123Z,0.00
2019-02-09T04:45:52.357Z,0.00
2019-02-09T04:47:56.523Z,0.00
2019-02-09T04:48:56.760Z,0.00
2019-02-09T04:51:00.909Z,0.00
2019-02-09T04:52:01.145Z,0.00
2019-02-09T04:54:05.309Z,0.00
2019-02-09T04:55:05.545Z,0.00
2019-02-09T04:56:58.645Z,0.00
2019-02-09T04:57:58.875Z,0.00
2019-02-09T05:00:03.035Z,0.00
2019-02-09T05:01:03.273Z,0.00
2019-02-09T05:03:07.443Z,0.00
2019-02-09T05:04:07.680Z,0.00
2019-02-09T05:06:11.832Z,0.00
2019-02-09T05:07:12.070Z,0.00
2019-02-09T05:09:16.248Z,0.00
2019-02-09T05:10:16.478Z,0.00
2019-02-09T05:12:20.645Z,0.00
2019-02-09T05:13:20.883Z,0.00
2019-02-09T05:15:25.033Z,0.00
2019-02-09T05:16:25.273Z,0.00
2019-02-09T05:18:29.439Z,0.00
2019-02-09T05:19:29.679Z,0.00
2019-02-09T05:21:33.827Z,0.00
2019-02-09T05:22:34.063Z,0.00
2019-02-09T05:24:38.225Z,0.00
2019-02-09T05:25:38.461Z,0.00
2019-02-09T05:27:31.537Z,0.00
2019-02-09T05:28:31.772Z,0.00
2019-02-09T05:30:35.940Z,0.00
2019-02-09T05:31:36.175Z,0.00
2019-02-09T05:33:40.353Z,0.00
2019-02-09T05:34:40.584Z,0.00
2019-02-09T05:36:44.743Z,0.00
2019-02-09T05:37:44.980Z,0.00
2019-02-09T05:39:49.155Z,0.00
2019-02-09T05:40:49.385Z,0.00
2019-02-09T05:42:53.590Z,0.00
2019-02-09T05:43:53.824Z,0.00
2019-02-09T05:45:57.972Z,0.00
2019-02-09T05:46:58.206Z,0.00
2019-02-09T05:49:02.373Z,0.00
2019-02-09T05:50:02.614Z,0.00
2019-02-09T05:52:06.756Z,0.00
2019-02-09T05:53:06.992Z,0.00
2019-02-09T05:55:11.167Z,0.00
2019-02-09T05:56:11.398Z,0.00
2019-02-09T05:58:15.563Z,0.00
2019-02-09T05:59:15.796Z,0.00
2019-02-09T06:01:19.943Z,0.00
2019-02-09T06:02:20.181Z,0.00
2019-02-09T06:04:24.351Z,0.00
2019-02-09T06:05:24.593Z,0.00
2019-02-09T06:07:17.666Z,0.00
2019-02-09T06:08:17.901Z,0.00
2019-02-09T06:10:22.071Z,0.00
2019-02-09T06:11:22.308Z,0.00
2019-02-09T06:13:26.456Z,0.00
2019-02-09T06:14:26.694Z,0.00
2019-02-09T06:16:30.934Z,0.00
2019-02-09T06:17:31.099Z,0.00
2019-02-09T06:19:35.267Z,0.00
2019-02-09T06:20:35.503Z,0.00
2019-02-09T06:22:39.653Z,0.00
2019-02-09T06:23:39.883Z,0.00
2019-02-09T06:25:44.055Z,0.00
2019-02-09T06:26:44.443Z,0.00
2019-02-09T06:28:48.619Z,0.00
2019-02-09T06:29:48.859Z,0.00
2019-02-09T06:31:53.027Z,0.00
2019-02-09T06:32:53.265Z,0.00
2019-02-09T06:34:57.436Z,0.00
2019-02-09T06:35:57.723Z,0.00
2019-02-09T06:38:01.822Z,0.00
2019-02-09T06:39:02.059Z,5.63
2019-02-09T06:41:06.236Z,5.63
2019-02-09T06:42:06.464Z,5.63
2019-02-09T06:44:10.638Z,5.63
2019-02-09T06:45:10.875Z,11.25
2019-02-09T06:47:03.950Z,11.25
2019-02-09T06:48:04.183Z,11.25
2019-02-09T06:50:08.368Z,11.25
2019-02-09T06:51:08.620Z,11.25
2019-02-09T06:53:12.775Z,16.88
2019-02-09T06:54:13.012Z,16.88
2019-02-09T06:56:17.182Z,22.50
2019-02-09T06:57:17.416Z,22.50
2019-02-09T06:59:21.593Z,28.13
2019-02-09T07:00:21.823Z,28.13
2019-02-09T07:02:25.972Z,33.75
2019-02-09T07:03:26.206Z,33.75
2019-02-09T07:05:30.374Z,45.00
2019-02-09T07:06:30.608Z,50.63
2019-02-09T07:08:34.761Z,56.25
2019-02-09T07:09:34.994Z,56.25
2019-02-09T07:11:39.162Z,61.88
2019-02-09T07:12:39.398Z,67.50
2019-02-09T07:14:43.570Z,61.88
2019-02-09T07:15:43.802Z,61.88
2019-02-09T07:17:47.952Z,78.75
2019-02-09T07:18:48.186Z,73.13
2019-02-09T07:20:52.351Z,61.88
2019-02-09T07:21:52.587Z,67.50
2019-02-09T07:23:56.727Z,78.75
2019-02-09T07:24:56.966Z,78.75
2019-02-09T07:26:50.063Z,78.75
2019-02-09T07:27:50.298Z,78.75
2019-02-09T07:29:54.472Z,67.50
2019-02-09T07:30:54.706Z,67.50
2019-02-09T07:32:58.851Z,78.75
2019-02-09T07:33:59.088Z,84.38
2019-02-09T07:36:03.265Z,106.88
2019-02-09T07:37:03.502Z,118.13
2019-02-09T07:39:07.694Z,163.13
2019-02-09T07:40:07.915Z,163.13
2019-02-09T07:42:12.111Z,438.75
2019-02-09T07:43:12.318Z,444.38
2019-02-09T07:45:16.487Z,180.00
2019-02-09T07:46:16.727Z,163.13
2019-02-09T07:48:20.879Z,191.25
2019-02-09T07:49:21.118Z,191.25
2019-02-09T07:51:25.288Z,174.38
2019-02-09T07:52:25.527Z,151.88
2019-02-09T07:54:30.170Z,185.63
2019-02-09T07:55:30.406Z,213.75
2019-02-09T07:57:23.509Z,219.38
2019-02-09T07:58:23.746Z,230.63
2019-02-09T08:00:27.921Z,219.38
2019-02-09T08:01:28.153Z,219.38
2019-02-09T08:03:32.310Z,163.13
2019-02-09T08:04:32.551Z,146.25
2019-02-09T08:06:37.265Z,140.63
2019-02-09T08:07:37.453Z,180.00
2019-02-09T08:09:41.622Z,196.88
2019-02-09T08:10:41.860Z,202.50
2019-02-09T08:12:46.048Z,185.63
2019-02-09T08:13:46.354Z,241.88
2019-02-09T08:15:50.488Z,331.88
2019-02-09T08:16:50.741Z,371.25
2019-02-09T08:18:55.383Z,174.38
2019-02-09T08:19:55.654Z,146.25
2019-02-09T08:21:59.888Z,146.25
2019-02-09T08:23:00.090Z,123.75
2019-02-09T08:25:04.760Z,202.50
2019-02-09T08:26:05.029Z,258.75
2019-02-09T08:28:09.748Z,180.00
2019-02-09T08:29:10.058Z,247.50
2019-02-09T08:31:14.638Z,354.38
2019-02-09T08:32:14.879Z,388.13
2019-02-09T08:34:19.049Z,540.00
2019-02-09T08:35:19.269Z,450.00
2019-02-09T08:37:12.392Z,894.38
2019-02-09T08:38:12.631Z,736.88
2019-02-09T08:40:16.785Z,849.38
2019-02-09T08:41:17.022Z,843.75
2019-02-09T08:43:21.194Z,399.38
2019-02-09T08:44:21.433Z,495.00
2019-02-09T08:46:25.610Z,838.13
2019-02-09T08:47:25.856Z,444.38
2019-02-09T08:49:30.017Z,270.00
2019-02-09T08:50:30.257Z,326.25
2019-02-09T08:52:34.442Z,478.13
2019-02-09T08:53:34.677Z,410.63
2019-02-09T08:55:38.835Z,258.75
2019-02-09T08:56:39.074Z,219.38
2019-02-09T08:58:43.253Z,202.50
2019-02-09T08:59:43.492Z,180.00
2019-02-09T09:01:47.673Z,157.50
2019-02-09T09:02:47.913Z,168.75
2019-02-09T09:04:52.069Z,208.13
2019-02-09T09:05:52.307Z,241.88
2019-02-09T09:07:56.479Z,388.13
2019-02-09T09:08:56.716Z,444.38
2019-02-09T09:11:01.448Z,438.75
2019-02-09T09:12:01.108Z,523.13
2019-02-09T09:14:05.283Z,579.38
2019-02-09T09:15:05.527Z,393.75
2019-02-09T09:16:58.619Z,455.63
2019-02-09T09:17:58.861Z,416.25
2019-02-09T09:20:04.047Z,303.75
2019-02-09T09:21:04.283Z,343.13
2019-02-09T09:23:08.462Z,253.13
2019-02-09T09:24:08.701Z,253.13
2019-02-09T09:26:12.851Z,247.50
2019-02-09T09:27:13.097Z,286.88
2019-02-09T09:29:17.273Z,601.88
2019-02-09T09:30:17.508Z,365.63
2019-02-09T09:32:28.522Z,331.88
2019-02-09T09:33:21.955Z,450.00
2019-02-09T09:35:26.124Z,348.75
2019-02-09T09:36:26.362Z,320.63
2019-02-09T09:38:30.541Z,360.00
2019-02-09T09:39:30.778Z,275.63
2019-02-09T09:41:34.964Z,315.00
2019-02-09T09:42:35.193Z,303.75
2019-02-09T09:44:39.412Z,298.13
2019-02-09T09:45:39.671Z,286.88
2019-02-09T09:47:32.759Z,247.50
2019-02-09T09:48:33.023Z,253.13
2019-02-09T09:50:37.252Z,517.50
2019-02-09T09:51:37.488Z,523.13
2019-02-09T09:53:41.675Z,635.63
2019-02-09T09:54:41.913Z,776.25
2019-02-09T09:56:46.069Z,568.13
2019-02-09T09:57:46.301Z,461.25
2019-02-09T09:59:50.601Z,534.38
2019-02-09T10:00:50.833Z,1248.75
2019-02-09T10:02:55.026Z,838.13
2019-02-09T10:03:55.267Z,1878.75
2019-02-09T10:05:59.444Z,691.88
2019-02-09T10:06:59.707Z,720.00
2019-02-09T10:09:03.888Z,973.13
2019-02-09T10:10:04.174Z,1012.50
2019-02-09T10:12:08.349Z,703.13
2019-02-09T10:13:08.589Z,832.50
2019-02-09T10:15:12.771Z,928.13
2019-02-09T10:16:13.014Z,961.88
2019-02-09T10:18:17.346Z,4387.50
2019-02-09T10:19:17.470Z,4185.00
2019-02-09T10:21:21.639Z,669.38
2019-02-09T10:22:22.069Z,534.38
2019-02-09T10:24:26.133Z,691.88
2019-02-09T10:25:26.474Z,759.38
2019-02-09T10:27:19.658Z,601.88
2019-02-09T10:28:20.060Z,551.25
2019-02-09T10:30:24.244Z,556.88
2019-02-09T10:31:24.640Z,585.00
2019-02-09T10:33:29.907Z,939.38
2019-02-09T10:34:30.148Z,596.25
2019-02-09T10:36:35.300Z,601.88
2019-02-09T10:37:35.537Z,4365.00
2019-02-09T10:39:39.864Z,596.25
2019-02-09T10:40:39.991Z,731.25
2019-02-09T10:42:44.600Z,466.88
2019-02-09T10:43:44.452Z,360.00
2019-02-09T10:45:48.687Z,253.13
2019-02-09T10:46:49.242Z,258.75
2019-02-09T10:48:42.250Z,421.88
2019-02-09T10:49:42.568Z,2171.25
2019-02-09T10:51:46.765Z,675.00
2019-02-09T10:52:46.996Z,663.75
2019-02-09T10:54:51.591Z,3667.50
2019-02-09T10:55:51.534Z,601.88
2019-02-09T10:57:56.697Z,2345.63
2019-02-09T10:58:56.938Z,472.50
2019-02-09T11:01:01.121Z,348.75
2019-02-09T11:02:01.362Z,331.88
2019-02-09T11:04:05.527Z,472.50
2019-02-09T11:05:05.772Z,540.00
2019-02-09T11:06:58.880Z,759.38
2019-02-09T11:07:59.122Z,2025.00
2019-02-09T11:10:03.302Z,2413.13
2019-02-09T11:11:03.540Z,4258.13
2019-02-09T11:13:07.705Z,4336.88
2019-02-09T11:14:07.945Z,4185.00
2019-02-09T11:16:12.125Z,3420.00
2019-02-09T11:17:12.366Z,3453.75
2019-02-09T11:19:16.526Z,2413.13
2019-02-09T11:20:16.766Z,669.38
2019-02-09T11:22:20.955Z,528.75
2019-02-09T11:23:21.200Z,320.63
2019-02-09T11:25:25.390Z,196.88
2019-02-09T11:26:25.623Z,191.25
2019-02-09T11:28:29.784Z,292.50
2019-02-09T11:29:30.029Z,405.00
2019-02-09T11:31:35.251Z,4140.00
2019-02-09T11:32:35.489Z,3960.00
2019-02-09T11:34:39.643Z,2739.38
2019-02-09T11:35:39.962Z,1636.88
2019-02-09T11:37:33.136Z,1018.13
2019-02-09T11:38:33.522Z,607.50
2019-02-09T11:40:37.718Z,697.50
2019-02-09T11:41:37.958Z,742.50
2019-02-09T11:43:42.133Z,855.00
2019-02-09T11:44:42.374Z,860.63
2019-02-09T11:46:46.621Z,939.38
2019-02-09T11:47:46.829Z,1198.13
2019-02-09T11:49:51.012Z,2019.38
2019-02-09T11:50:51.430Z,1681.88
2019-02-09T11:52:55.662Z,5293.13
2019-02-09T11:53:55.868Z,4786.88
2019-02-09T11:56:00.183Z,511.88
2019-02-09T11:57:00.430Z,433.13
2019-02-09T11:59:04.606Z,343.13
2019-02-09T12:00:04.857Z,866.25
2019-02-09T12:02:09.028Z,725.63
2019-02-09T12:03:14.997Z,967.50
2019-02-09T12:05:13.442Z,1012.50
2019-02-09T12:06:13.726Z,1563.75
2019-02-09T12:08:17.911Z,2790.00
2019-02-09T12:09:18.205Z,1012.50
2019-02-09T12:11:22.365Z,2885.63
2019-02-09T12:12:22.608Z,1299.38
2019-02-09T12:14:26.765Z,945.00
2019-02-09T12:15:27.019Z,1597.50
2019-02-09T12:17:20.132Z,4680.00
2019-02-09T12:18:20.375Z,5056.88
2019-02-09T12:20:24.541Z,900.00
2019-02-09T12:21:24.810Z,2266.88
2019-02-09T12:23:28.979Z,838.13
2019-02-09T12:24:29.241Z,3751.88
2019-02-09T12:26:33.412Z,601.88
2019-02-09T12:27:33.659Z,703.13
2019-02-09T12:29:37.829Z,551.25
2019-02-09T12:30:38.068Z,461.25
2019-02-09T12:32:42.248Z,1366.88
2019-02-09T12:33:42.494Z,720.00
2019-02-09T12:35:46.652Z,545.63
2019-02-09T12:36:46.897Z,450.00
2019-02-09T12:38:51.082Z,545.63
2019-02-09T12:39:51.325Z,635.63
2019-02-09T12:41:55.506Z,720.00
2019-02-09T12:42:55.748Z,4100.63
2019-02-09T12:44:59.905Z,461.25
2019-02-09T12:46:00.148Z,331.88
2019-02-09T12:48:04.338Z,219.38
2019-02-09T12:49:04.580Z,157.50
2019-02-09T12:51:08.744Z,95.63
2019-02-09T12:52:08.982Z,101.25
2019-02-09T12:54:13.165Z,135.00
2019-02-09T12:55:13.410Z,174.38
2019-02-09T12:57:06.493Z,270.00
2019-02-09T12:58:06.737Z,264.38
2019-02-09T13:00:10.915Z,185.63
2019-02-09T13:01:11.161Z,157.50
2019-02-09T13:03:15.328Z,135.00
2019-02-09T13:04:15.569Z,140.63
2019-02-09T13:06:19.728Z,298.13
2019-02-09T13:07:19.959Z,382.50
2019-02-09T13:09:24.135Z,1063.13
2019-02-09T13:10:24.375Z,562.50
2019-02-09T13:12:28.534Z,376.88
2019-02-09T13:13:28.767Z,337.50
2019-02-09T13:15:32.936Z,180.00
2019-02-09T13:16:33.167Z,157.50
2019-02-09T13:18:37.368Z,118.13
2019-02-09T13:19:37.576Z,106.88
2019-02-09T13:21:41.724Z,106.88
2019-02-09T13:22:41.965Z,123.75
2019-02-09T13:24:46.137Z,208.13
2019-02-09T13:25:46.376Z,236.25
2019-02-09T13:27:50.526Z,309.38
2019-02-09T13:28:50.762Z,478.13
2019-02-09T13:30:54.942Z,427.50
2019-02-09T13:31:55.181Z,534.38
2019-02-09T13:33:59.352Z,1220.63
2019-02-09T13:34:59.591Z,562.50
2019-02-09T13:36:52.670Z,618.75
2019-02-09T13:37:52.907Z,421.88
2019-02-09T13:39:57.081Z,303.75
2019-02-09T13:40:57.319Z,191.25
2019-02-09T13:43:01.472Z,202.50
2019-02-09T13:44:01.712Z,208.13
2019-02-09T13:46:05.882Z,191.25
2019-02-09T13:47:06.237Z,191.25
2019-02-09T13:49:10.417Z,236.25
2019-02-09T13:50:10.653Z,264.38
2019-02-09T13:52:14.808Z,410.63
2019-02-09T13:53:15.114Z,613.13
2019-02-09T13:55:19.528Z,613.13
2019-02-09T13:56:19.679Z,483.75
2019-02-09T13:58:23.835Z,478.13
2019-02-09T13:59:24.073Z,517.50
2019-02-09T14:01:28.432Z,489.38
2019-02-09T14:02:28.804Z,438.75
2019-02-09T14:04:32.978Z,511.88
2019-02-09T14:05:33.217Z,551.25
2019-02-09T14:07:26.390Z,703.13
2019-02-09T14:08:26.626Z,753.75
2019-02-09T14:10:30.977Z,562.50
2019-02-09T14:11:31.368Z,421.88
2019-02-09T14:13:35.586Z,343.13
2019-02-09T14:14:35.825Z,320.63
2019-02-09T14:16:39.997Z,292.50
2019-02-09T14:17:40.237Z,281.25
2019-02-09T14:19:44.625Z,433.13
2019-02-09T14:20:44.693Z,388.13
2019-02-09T14:22:48.879Z,438.75
2019-02-09T14:23:49.116Z,410.63
2019-02-09T14:25:53.449Z,376.88
2019-02-09T14:26:53.812Z,466.88
2019-02-09T14:28:58.226Z,376.88
2019-02-09T14:29:58.376Z,405.00
2019-02-09T14:32:02.578Z,331.88
2019-02-09T14:33:02.958Z,298.13
2019-02-09T14:35:08.687Z,247.50
2019-02-09T14:36:08.493Z,253.13
2019-02-09T14:38:14.134Z,247.50
2019-02-09T14:39:14.356Z,225.00
2019-02-09T14:41:18.686Z,241.88
2019-02-09T14:42:18.974Z,264.38
2019-02-09T14:44:23.655Z,331.88
2019-02-09T14:45:23.881Z,315.00
2019-02-09T14:47:17.668Z,466.88
2019-02-09T14:48:17.981Z,303.75
2019-02-09T14:50:22.155Z,230.63
2019-02-09T14:51:22.396Z,225.00
2019-02-09T14:53:26.577Z,140.63
2019-02-09T14:54:26.967Z,129.38
2019-02-09T14:56:31.135Z,123.75
2019-02-09T14:57:31.543Z,112.50
2019-02-09T14:59:35.711Z,106.88
2019-02-09T15:00:35.949Z,101.25
2019-02-09T15:02:40.314Z,84.38
2019-02-09T15:03:40.462Z,84.38
2019-02-09T15:05:44.717Z,106.88
2019-02-09T15:06:44.954Z,140.63
2019-02-09T15:08:49.107Z,180.00
2019-02-09T15:09:49.457Z,213.75
2019-02-09T15:11:53.776Z,253.13
2019-02-09T15:12:54.129Z,270.00
2019-02-09T15:14:58.386Z,253.13
2019-02-09T15:15:58.740Z,236.25
2019-02-09T15:18:03.948Z,219.38
2019-02-09T15:19:04.185Z,196.88
2019-02-09T15:21:08.509Z,163.13
2019-02-09T15:22:08.867Z,146.25
2019-02-09T15:24:13.181Z,106.88
2019-02-09T15:25:13.413Z,90.00
2019-02-09T15:27:06.668Z,73.13
2019-02-09T15:28:12.365Z,61.88
2019-02-09T15:30:11.154Z,45.00
2019-02-09T15:31:11.454Z,50.63
2019-02-09T15:33:15.666Z,61.88
2019-02-09T15:34:15.909Z,84.38
2019-02-09T15:36:20.167Z,95.63
2019-02-09T15:37:20.540Z,112.50
2019-02-09T15:39:24.750Z,112.50
2019-02-09T15:40:24.992Z,106.88
2019-02-09T15:42:29.293Z,101.25
2019-02-09T15:43:29.530Z,95.63
2019-02-09T15:45:33.682Z,95.63
2019-02-09T15:46:34.072Z,90.00
2019-02-09T15:48:38.336Z,84.38
2019-02-09T15:49:38.569Z,78.75
2019-02-09T15:51:42.753Z,78.75
2019-02-09T15:52:42.993Z,73.13
2019-02-09T15:54:48.163Z,67.50
2019-02-09T15:55:48.402Z,67.50
2019-02-09T15:57:52.630Z,61.88
2019-02-09T15:58:52.888Z,56.25
2019-02-09T16:00:57.085Z,50.63
2019-02-09T16:01:57.468Z,45.00
2019-02-09T16:04:01.657Z,39.38
2019-02-09T16:05:01.974Z,39.38
2019-02-09T16:06:55.096Z,39.38
2019-02-09T16:07:55.323Z,39.38
2019-02-09T16:09:59.494Z,33.75
2019-02-09T16:10:59.733Z,33.75
2019-02-09T16:13:03.961Z,28.13
2019-02-09T16:14:04.225Z,28.13
2019-02-09T16:16:08.380Z,22.50
2019-02-09T16:17:08.617Z,22.50
2019-02-09T16:19:12.926Z,16.88
2019-02-09T16:20:14.325Z,16.88
2019-02-09T16:22:17.386Z,11.25
2019-02-09T16:23:17.623Z,11.25
2019-02-09T16:25:21.773Z,5.63
2019-02-09T16:26:22.009Z,5.63
2019-02-09T16:28:26.174Z,5.63
2019-02-09T16:29:26.568Z,0.00
2019-02-09T16:31:30.865Z,0.00
2019-02-09T16:32:31.155Z,0.00
2019-02-09T16:34:35.401Z,0.00
2019-02-09T16:35:35.666Z,0.00
2019-02-09T16:37:28.945Z,0.00
2019-02-09T16:38:29.022Z,0.00
2019-02-09T16:40:34.248Z,0.00
2019-02-09T16:41:34.605Z,0.00
2019-02-09T16:43:38.991Z,0.00
2019-02-09T16:44:39.057Z,0.00
2019-02-09T16:46:43.234Z,0.00
2019-02-09T16:47:43.501Z,0.00
2019-02-09T16:49:47.716Z,0.00
2019-02-09T16:50:48.090Z,0.00
2019-02-09T16:52:52.315Z,0.00
2019-02-09T16:53:52.638Z,0.00
2019-02-09T16:55:56.810Z,0.00
2019-02-09T16:56:57.202Z,0.00
2019-02-09T16:59:01.539Z,0.00
2019-02-09T17:00:01.921Z,0.00
2019-02-09T17:02:06.267Z,0.00
2019-02-09T17:03:06.382Z,0.00
2019-02-09T17:05:10.629Z,0.00
2019-02-09T17:06:10.861Z,0.00
2019-02-09T17:08:15.033Z,0.00
2019-02-09T17:09:15.269Z,0.00
2019-02-09T17:11:19.440Z,0.00
2019-02-09T17:12:19.679Z,0.00
2019-02-09T17:14:23.854Z,0.00
2019-02-09T17:15:25.149Z,0.00
2019-02-09T17:17:17.199Z,0.00
2019-02-09T17:18:17.430Z,0.00
2019-02-09T17:20:21.576Z,0.00
2019-02-09T17:21:21.813Z,0.00
2019-02-09T17:23:25.991Z,0.00
2019-02-09T17:24:26.227Z,0.00
2019-02-09T17:26:30.377Z,0.00
2019-02-09T17:27:30.611Z,0.00
2019-02-09T17:29:34.784Z,0.00
2019-02-09T17:30:35.019Z,0.00
2019-02-09T17:32:39.187Z,0.00
2019-02-09T17:33:39.447Z,0.00
2019-02-09T17:35:43.594Z,0.00
2019-02-09T17:36:43.831Z,0.00
2019-02-09T17:38:48.073Z,0.00
2019-02-09T17:39:48.375Z,0.00
2019-02-09T17:41:54.122Z,0.00
2019-02-09T17:42:53.593Z,0.00
2019-02-09T17:44:56.934Z,0.00
2019-02-09T17:45:57.169Z,0.00
2019-02-09T17:48:01.416Z,0.00
2019-02-09T17:49:01.679Z,0.00
2019-02-09T17:51:05.850Z,0.00
2019-02-09T17:52:06.115Z,0.00
2019-02-09T17:54:10.358Z,0.00
2019-02-09T17:55:10.626Z,0.00
2019-02-09T17:57:03.698Z,0.00
2019-02-09T17:58:03.935Z,0.00
2019-02-09T18:00:08.154Z,0.00
2019-02-09T18:01:08.408Z,0.00
2019-02-09T18:03:12.632Z,0.00
2019-02-09T18:04:12.862Z,0.00
2019-02-09T18:06:17.026Z,0.00
2019-02-09T18:07:17.260Z,0.00
2019-02-09T18:09:21.425Z,0.00
2019-02-09T18:10:21.660Z,0.00
2019-02-09T18:12:25.804Z,0.00
2019-02-09T18:13:26.041Z,0.00
2019-02-09T18:15:30.275Z,0.00
2019-02-09T18:16:30.536Z,0.00
2019-02-09T18:18:34.778Z,0.00
2019-02-09T18:19:35.072Z,0.00
2019-02-09T18:21:39.213Z,0.00
2019-02-09T18:22:39.491Z,0.00
2019-02-09T18:24:43.658Z,0.00
2019-02-09T18:25:43.898Z,0.00
2019-02-09T18:27:48.053Z,0.00
2019-02-09T18:28:48.314Z,0.00
2019-02-09T18:30:52.481Z,0.00
2019-02-09T18:31:52.758Z,0.00
2019-02-09T18:33:57.006Z,0.00
2019-02-09T18:34:57.321Z,0.00
2019-02-09T18:36:50.389Z,0.00
2019-02-09T18:37:50.666Z,0.00
2019-02-09T18:39:54.876Z,0.00
2019-02-09T18:40:55.134Z,0.00
2019-02-09T18:42:59.278Z,0.00
2019-02-09T18:43:59.553Z,0.00
2019-02-09T18:46:03.711Z,0.00
2019-02-09T18:47:04.108Z,0.00
2019-02-09T18:49:08.269Z,0.00
2019-02-09T18:50:08.563Z,0.00
2019-02-09T18:52:12.990Z,0.00
2019-02-09T18:53:12.943Z,0.00
2019-02-09T18:55:17.162Z,0.00
2019-02-09T18:56:17.568Z,0.00
2019-02-09T18:58:21.733Z,0.00
2019-02-09T18:59:21.965Z,0.00
2019-02-09T19:01:26.152Z,0.00
2019-02-09T19:02:26.479Z,0.00
2019-02-09T19:04:30.658Z,0.00
2019-02-09T19:05:30.954Z,0.00
2019-02-09T19:07:24.054Z,0.00
2019-02-09T19:08:24.284Z,0.00
2019-02-09T19:10:28.597Z,0.00
2019-02-09T19:11:28.950Z,0.00
2019-02-09T19:13:33.098Z,0.00
2019-02-09T19:14:33.397Z,0.00
2019-02-09T19:16:37.567Z,0.00
2019-02-09T19:17:37.824Z,0.00
2019-02-09T19:19:41.995Z,0.00
2019-02-09T19:20:42.228Z,0.00
2019-02-09T19:22:46.381Z,0.00
2019-02-09T19:23:46.610Z,0.00
2019-02-09T19:25:50.835Z,0.00
2019-02-09T19:26:51.056Z,0.00
2019-02-09T19:28:55.227Z,0.00
2019-02-09T19:29:55.468Z,0.00
2019-02-09T19:31:59.623Z,0.00
2019-02-09T19:32:59.858Z,0.00
2019-02-09T19:35:04.024Z,0.00
2019-02-09T19:36:04.258Z,0.00
2019-02-09T19:38:08.400Z,0.00
2019-02-09T19:39:08.635Z,0.00
2019-02-09T19:41:12.799Z,0.00
2019-02-09T19:42:13.034Z,0.00
2019-02-09T19:44:17.195Z,0.00